BOE153E KPAE-KBFI
Flight info
| Callsign | BOE153E |
|---|---|
| Flight time | 0h 8m |
| Altitude | 41000 |
| Route | PAE V287 CARRO V27 HQM OLM OLM2 |
| Aircraft | B77W/H-SDE2E3FGHIJ5LORVWXY/LB1D1 |
Departure
| Time | 2026-04-30 17:56 |
|---|---|
| Airport | Seattle Paine Field International Airport (KPAE) |
Arrival
| Time | 2026-04-30 18:05 |
|---|---|
| Airport | King County International Airport - Boeing Field (KBFI) |
| Time | Latitude | Longitude | Altitude | Speed | Heading |
|---|---|---|---|---|---|
| 2026-04-30 17:39 | 46.61038 | -123.83112 | 28314 ft | 466 kts | 108° |
| 2026-04-30 17:41 | 46.69439 | -123.47185 | 28340 ft | 500 kts | 41° |
| 2026-04-30 17:42 | 46.74473 | -123.40236 | 28337 ft | 492 kts | 41° |
| 2026-04-30 17:42 | 46.81330 | -123.30737 | 26625 ft | 426 kts | 43° |
| 2026-04-30 17:43 | 46.85424 | -123.25050 | 25553 ft | 391 kts | 43° |
| 2026-04-30 17:44 | 46.90942 | -123.17322 | 24474 ft | 341 kts | 46° |
| 2026-04-30 17:44 | 46.94835 | -123.09148 | 23640 ft | 325 kts | 63° |
| 2026-04-30 17:46 | 46.97286 | -122.93024 | 21193 ft | 331 kts | 75° |
| 2026-04-30 17:47 | 47.02958 | -122.82847 | 19237 ft | 322 kts | 41° |
| 2026-04-30 17:48 | 47.09553 | -122.74400 | 17195 ft | 307 kts | 41° |
| 2026-04-30 17:48 | 47.14350 | -122.68262 | 16846 ft | 292 kts | 41° |
| 2026-04-30 17:49 | 47.19944 | -122.61083 | 15070 ft | 261 kts | 41° |
| 2026-04-30 17:50 | 47.26431 | -122.57437 | 12645 ft | 253 kts | 7° |
| 2026-04-30 17:51 | 47.31568 | -122.56625 | 10799 ft | 246 kts | 7° |
| 2026-04-30 17:52 | 47.36451 | -122.55849 | 9819 ft | 225 kts | 7° |
| 2026-04-30 17:53 | 47.44048 | -122.54637 | 8388 ft | 217 kts | 8° |
| 2026-04-30 17:54 | 47.50023 | -122.55364 | 7085 ft | 213 kts | 351° |
| 2026-04-30 17:55 | 47.55636 | -122.56916 | 5735 ft | 200 kts | 351° |
| 2026-04-30 17:56 | 47.61042 | -122.58411 | 4442 ft | 195 kts | 351° |
| 2026-04-30 17:57 | 47.64841 | -122.57563 | 3416 ft | 177 kts | 26° |
| 2026-04-30 17:58 | 47.67704 | -122.54741 | 2528 ft | 162 kts | 62° |
| 2026-04-30 17:59 | 47.67562 | -122.48164 | 1879 ft | 162 kts | 97° |
| 2026-04-30 18:00 | 47.65169 | -122.43133 | 1607 ft | 145 kts | 132° |
| 2026-04-30 18:00 | 47.63121 | -122.39991 | 1596 ft | 134 kts | 132° |
| 2026-04-30 18:01 | 47.62049 | -122.37822 | 1584 ft | 128 kts | 136° |
| 2026-04-30 18:02 | 47.59622 | -122.35833 | 1295 ft | 135 kts | 149° |
| 2026-04-30 18:02 | 47.57172 | -122.33760 | 749 ft | 134 kts | 150° |
| 2026-04-30 18:03 | 47.54747 | -122.31727 | 199 ft | 133 kts | 151° |
| 2026-04-30 18:04 | 47.52783 | -122.30070 | 28 ft | 51 kts | 149° |
| 2026-04-30 18:05 | 47.52282 | -122.29646 | 29 ft | 0 kts | 150° |
| 2026-04-30 18:06 | 47.52240 | -122.29724 | 28 ft | 7 kts | 266° |
| 2026-04-30 18:07 | 47.52605 | -122.30060 | 27 ft | 17 kts | 331° |
| 2026-04-30 18:08 | 47.52947 | -122.30351 | 26 ft | 19 kts | 330° |
| 2026-04-30 18:09 | 47.53331 | -122.30677 | 26 ft | 12 kts | 330° |
| 2026-04-30 18:10 | 47.53828 | -122.31094 | 27 ft | 21 kts | 329° |
| 2026-04-30 18:11 | 47.53950 | -122.31422 | 26 ft | 13 kts | 286° |